sensor_id;sensor_type;location;lat;lon;timestamp;temperature;humidity
23124;DHT22;11731;48.592;8.858;2023-03-23T00:02:22;14.50;95.30
23124;DHT22;11731;48.592;8.858;2023-03-23T00:04:50;14.50;95.60
23124;DHT22;11731;48.592;8.858;2023-03-23T00:07:18;14.60;95.50
23124;DHT22;11731;48.592;8.858;2023-03-23T00:09:47;14.70;95.10
23124;DHT22;11731;48.592;8.858;2023-03-23T00:12:19;14.60;95.00
23124;DHT22;11731;48.592;8.858;2023-03-23T00:14:45;14.50;95.20
23124;DHT22;11731;48.592;8.858;2023-03-23T00:17:13;14.50;95.20
23124;DHT22;11731;48.592;8.858;2023-03-23T00:19:40;14.60;95.00
23124;DHT22;11731;48.592;8.858;2023-03-23T00:22:14;14.70;94.90
23124;DHT22;11731;48.592;8.858;2023-03-23T00:24:42;14.80;94.70
23124;DHT22;11731;48.592;8.858;2023-03-23T00:27:10;14.80;94.60
23124;DHT22;11731;48.592;8.858;2023-03-23T00:29:40;14.90;94.40
23124;DHT22;11731;48.592;8.858;2023-03-23T00:32:37;14.90;94.20
23124;DHT22;11731;48.592;8.858;2023-03-23T00:35:04;15.00;94.30
23124;DHT22;11731;48.592;8.858;2023-03-23T00:40:05;14.80;94.30
23124;DHT22;11731;48.592;8.858;2023-03-23T00:42:35;14.80;94.30
23124;DHT22;11731;48.592;8.858;2023-03-23T00:45:16;14.90;94.40
23124;DHT22;11731;48.592;8.858;2023-03-23T00:56:47;13.90;96.00
23124;DHT22;11731;48.592;8.858;2023-03-23T00:59:14;13.40;96.90
23124;DHT22;11731;48.592;8.858;2023-03-23T01:04:21;13.40;97.10
23124;DHT22;11731;48.592;8.858;2023-03-23T01:07:17;13.30;97.00
23124;DHT22;11731;48.592;8.858;2023-03-23T01:09:47;13.30;97.30
23124;DHT22;11731;48.592;8.858;2023-03-23T01:12:39;13.50;97.30
23124;DHT22;11731;48.592;8.858;2023-03-23T01:18:41;13.60;97.20
23124;DHT22;11731;48.592;8.858;2023-03-23T01:21:22;13.80;96.40
23124;DHT22;11731;48.592;8.858;2023-03-23T01:24:04;13.60;96.90
23124;DHT22;11731;48.592;8.858;2023-03-23T01:26:32;13.70;96.70
23124;DHT22;11731;48.592;8.858;2023-03-23T01:29:06;13.80;96.60
23124;DHT22;11731;48.592;8.858;2023-03-23T01:38:02;13.80;96.70
23124;DHT22;11731;48.592;8.858;2023-03-23T01:42:09;13.90;96.80
23124;DHT22;11731;48.592;8.858;2023-03-23T01:44:02;14.10;96.20
23124;DHT22;11731;48.592;8.858;2023-03-23T01:46:35;14.20;95.90
23124;DHT22;11731;48.592;8.858;2023-03-23T01:49:16;14.20;96.00
23124;DHT22;11731;48.592;8.858;2023-03-23T01:51:46;14.10;96.30
23124;DHT22;11731;48.592;8.858;2023-03-23T01:54:42;14.00;96.50
23124;DHT22;11731;48.592;8.858;2023-03-23T01:58:05;14.20;95.50
23124;DHT22;11731;48.592;8.858;2023-03-23T02:00:26;14.30;95.40
23124;DHT22;11731;48.592;8.858;2023-03-23T02:02:54;14.40;95.90
23124;DHT22;11731;48.592;8.858;2023-03-23T02:09:15;14.30;95.30
23124;DHT22;11731;48.592;8.858;2023-03-23T02:11:44;14.30;96.10
23124;DHT22;11731;48.592;8.858;2023-03-23T02:14:11;14.40;95.90
23124;DHT22;11731;48.592;8.858;2023-03-23T02:16:45;14.40;95.60
23124;DHT22;11731;48.592;8.858;2023-03-23T02:20:12;14.50;95.50
23124;DHT22;11731;48.592;8.858;2023-03-23T02:22:54;14.50;95.40
23124;DHT22;11731;48.592;8.858;2023-03-23T02:26:16;14.50;95.30
23124;DHT22;11731;48.592;8.858;2023-03-23T02:29:12;14.60;95.70
23124;DHT22;11731;48.592;8.858;2023-03-23T02:34:44;14.50;95.60
23124;DHT22;11731;48.592;8.858;2023-03-23T02:37:18;14.50;96.00
23124;DHT22;11731;48.592;8.858;2023-03-23T02:40:04;14.50;95.80
23124;DHT22;11731;48.592;8.858;2023-03-23T02:42:36;14.10;96.70
23124;DHT22;11731;48.592;8.858;2023-03-23T02:45:08;13.80;97.20
23124;DHT22;11731;48.592;8.858;2023-03-23T02:47:41;13.80;97.30
23124;DHT22;11731;48.592;8.858;2023-03-23T02:50:13;13.60;97.60
23124;DHT22;11731;48.592;8.858;2023-03-23T02:52:42;13.60;97.60
23124;DHT22;11731;48.592;8.858;2023-03-23T02:57:54;13.50;97.60
23124;DHT22;11731;48.592;8.858;2023-03-23T03:00:22;13.60;97.70
23124;DHT22;11731;48.592;8.858;2023-03-23T03:02:51;13.80;97.10
23124;DHT22;11731;48.592;8.858;2023-03-23T03:05:30;13.90;97.20
23124;DHT22;11731;48.592;8.858;2023-03-23T03:08:06;14.00;97.10
23124;DHT22;11731;48.592;8.858;2023-03-23T03:10:54;14.20;96.80
23124;DHT22;11731;48.592;8.858;2023-03-23T03:13:35;14.30;96.60
23124;DHT22;11731;48.592;8.858;2023-03-23T03:16:11;14.30;96.20
23124;DHT22;11731;48.592;8.858;2023-03-23T03:19:03;14.40;96.00
23124;DHT22;11731;48.592;8.858;2023-03-23T03:21:36;14.50;96.00
23124;DHT22;11731;48.592;8.858;2023-03-23T03:24:05;14.50;96.10
23124;DHT22;11731;48.592;8.858;2023-03-23T03:26:39;14.50;96.10
23124;DHT22;11731;48.592;8.858;2023-03-23T03:37:43;14.50;96.00
23124;DHT22;11731;48.592;8.858;2023-03-23T03:45:10;14.50;95.90
23124;DHT22;11731;48.592;8.858;2023-03-23T03:47:46;14.50;96.10
23124;DHT22;11731;48.592;8.858;2023-03-23T03:50:26;14.50;95.60
23124;DHT22;11731;48.592;8.858;2023-03-23T03:56:19;14.40;95.90
23124;DHT22;11731;48.592;8.858;2023-03-23T04:05:35;14.40;95.70
23124;DHT22;11731;48.592;8.858;2023-03-23T04:08:11;14.40;95.60
23124;DHT22;11731;48.592;8.858;2023-03-23T04:10:51;14.50;95.30
23124;DHT22;11731;48.592;8.858;2023-03-23T04:13:21;14.50;96.60
23124;DHT22;11731;48.592;8.858;2023-03-23T04:20:05;14.40;96.90
23124;DHT22;11731;48.592;8.858;2023-03-23T04:22:40;14.20;96.70
23124;DHT22;11731;48.592;8.858;2023-03-23T04:25:12;14.30;96.50
23124;DHT22;11731;48.592;8.858;2023-03-23T04:27:40;14.20;96.70
23124;DHT22;11731;48.592;8.858;2023-03-23T04:30:16;13.90;96.40
23124;DHT22;11731;48.592;8.858;2023-03-23T04:32:43;13.50;96.80
23124;DHT22;11731;48.592;8.858;2023-03-23T04:35:25;13.20;96.90
23124;DHT22;11731;48.592;8.858;2023-03-23T04:44:55;13.20;96.90
23124;DHT22;11731;48.592;8.858;2023-03-23T04:50:49;13.20;97.70
23124;DHT22;11731;48.592;8.858;2023-03-23T04:53:09;13.10;97.40
23124;DHT22;11731;48.592;8.858;2023-03-23T04:55:53;13.20;97.10
23124;DHT22;11731;48.592;8.858;2023-03-23T05:01:39;13.30;97.10
23124;DHT22;11731;48.592;8.858;2023-03-23T05:07:33;13.40;97.40
23124;DHT22;11731;48.592;8.858;2023-03-23T05:10:13;13.40;97.00
23124;DHT22;11731;48.592;8.858;2023-03-23T05:12:41;13.40;97.10
23124;DHT22;11731;48.592;8.858;2023-03-23T05:15:09;13.70;97.00
23124;DHT22;11731;48.592;8.858;2023-03-23T05:17:38;13.90;96.80
23124;DHT22;11731;48.592;8.858;2023-03-23T05:20:07;13.80;96.50
23124;DHT22;11731;48.592;8.858;2023-03-23T05:22:45;13.60;96.80
23124;DHT22;11731;48.592;8.858;2023-03-23T05:26:39;13.60;96.80
23124;DHT22;11731;48.592;8.858;2023-03-23T05:28:41;13.40;96.90
23124;DHT22;11731;48.592;8.858;2023-03-23T05:34:40;13.20;97.10
23124;DHT22;11731;48.592;8.858;2023-03-23T05:37:09;13.50;96.90
23124;DHT22;11731;48.592;8.858;2023-03-23T05:39:39;13.50;96.70
23124;DHT22;11731;48.592;8.858;2023-03-23T05:45:15;13.60;96.90
23124;DHT22;11731;48.592;8.858;2023-03-23T05:57:58;13.70;97.20
23124;DHT22;11731;48.592;8.858;2023-03-23T06:00:25;13.70;97.00
23124;DHT22;11731;48.592;8.858;2023-03-23T06:03:26;13.60;97.10
23124;DHT22;11731;48.592;8.858;2023-03-23T06:08:16;13.70;96.80
23124;DHT22;11731;48.592;8.858;2023-03-23T06:12:13;13.90;96.90
23124;DHT22;11731;48.592;8.858;2023-03-23T06:21:27;14.10;96.60
23124;DHT22;11731;48.592;8.858;2023-03-23T06:23:54;13.90;96.60
23124;DHT22;11731;48.592;8.858;2023-03-23T06:26:30;14.00;96.80
23124;DHT22;11731;48.592;8.858;2023-03-23T06:28:58;14.00;96.90
23124;DHT22;11731;48.592;8.858;2023-03-23T06:34:44;13.80;97.10
23124;DHT22;11731;48.592;8.858;2023-03-23T06:37:14;13.70;97.20
23124;DHT22;11731;48.592;8.858;2023-03-23T06:42:42;13.70;96.80
23124;DHT22;11731;48.592;8.858;2023-03-23T06:43:04;13.80;96.90
23124;DHT22;11731;48.592;8.858;2023-03-23T06:45:31;13.80;96.90
23124;DHT22;11731;48.592;8.858;2023-03-23T06:47:58;13.80;97.00
23124;DHT22;11731;48.592;8.858;2023-03-23T06:50:34;13.90;97.10
23124;DHT22;11731;48.592;8.858;2023-03-23T06:59:17;14.10;96.80
23124;DHT22;11731;48.592;8.858;2023-03-23T07:01:47;14.20;96.90
23124;DHT22;11731;48.592;8.858;2023-03-23T07:04:43;14.20;96.60
23124;DHT22;11731;48.592;8.858;2023-03-23T07:07:11;14.30;96.30
23124;DHT22;11731;48.592;8.858;2023-03-23T07:09:52;14.50;96.40
23124;DHT22;11731;48.592;8.858;2023-03-23T07:15:33;14.80;96.20
23124;DHT22;11731;48.592;8.858;2023-03-23T07:18:01;14.80;96.30
23124;DHT22;11731;48.592;8.858;2023-03-23T07:20:32;15.00;96.20
23124;DHT22;11731;48.592;8.858;2023-03-23T07:23:34;15.00;95.70
23124;DHT22;11731;48.592;8.858;2023-03-23T07:29:37;15.50;95.80
23124;DHT22;11731;48.592;8.858;2023-03-23T07:32:10;15.80;95.20
23124;DHT22;11731;48.592;8.858;2023-03-23T07:35:02;15.80;95.30
23124;DHT22;11731;48.592;8.858;2023-03-23T07:37:31;16.10;95.40
23124;DHT22;11731;48.592;8.858;2023-03-23T07:39:58;16.20;94.80
23124;DHT22;11731;48.592;8.858;2023-03-23T07:42:26;16.30;94.80
23124;DHT22;11731;48.592;8.858;2023-03-23T07:44:53;16.40;94.50
23124;DHT22;11731;48.592;8.858;2023-03-23T07:50:22;16.50;95.30
23124;DHT22;11731;48.592;8.858;2023-03-23T07:57:03;17.00;94.90
23124;DHT22;11731;48.592;8.858;2023-03-23T07:59:50;17.40;94.20
23124;DHT22;11731;48.592;8.858;2023-03-23T08:04:25;17.50;94.20
23124;DHT22;11731;48.592;8.858;2023-03-23T08:08:37;17.40;94.40
23124;DHT22;11731;48.592;8.858;2023-03-23T08:11:31;17.40;94.60
23124;DHT22;11731;48.592;8.858;2023-03-23T08:18:27;16.60;95.70
23124;DHT22;11731;48.592;8.858;2023-03-23T08:21:24;16.00;97.00
23124;DHT22;11731;48.592;8.858;2023-03-23T08:27:15;15.80;97.80
23124;DHT22;11731;48.592;8.858;2023-03-23T08:30:17;15.50;98.10
23124;DHT22;11731;48.592;8.858;2023-03-23T08:36:38;15.80;98.60
23124;DHT22;11731;48.592;8.858;2023-03-23T08:42:37;15.90;98.10
23124;DHT22;11731;48.592;8.858;2023-03-23T08:45:22;15.80;98.20
23124;DHT22;11731;48.592;8.858;2023-03-23T08:48:00;15.70;98.10
23124;DHT22;11731;48.592;8.858;2023-03-23T08:50:28;15.90;98.00
23124;DHT22;11731;48.592;8.858;2023-03-23T08:52:56;15.80;98.10
23124;DHT22;11731;48.592;8.858;2023-03-23T08:55:25;15.80;98.40
23124;DHT22;11731;48.592;8.858;2023-03-23T09:01:13;15.40;98.90
23124;DHT22;11731;48.592;8.858;2023-03-23T09:03:46;15.30;98.50
23124;DHT22;11731;48.592;8.858;2023-03-23T09:08:42;15.50;98.60
23124;DHT22;11731;48.592;8.858;2023-03-23T09:10:09;15.30;98.80
23124;DHT22;11731;48.592;8.858;2023-03-23T09:12:36;15.60;98.80
23124;DHT22;11731;48.592;8.858;2023-03-23T09:25:18;16.00;98.30
23124;DHT22;11731;48.592;8.858;2023-03-23T09:30:49;15.90;99.20
23124;DHT22;11731;48.592;8.858;2023-03-23T09:33:17;15.90;99.10
23124;DHT22;11731;48.592;8.858;2023-03-23T09:35:44;15.60;99.00
23124;DHT22;11731;48.592;8.858;2023-03-23T09:38:11;15.40;99.40
23124;DHT22;11731;48.592;8.858;2023-03-23T09:44:01;15.80;99.30
23124;DHT22;11731;48.592;8.858;2023-03-23T09:46:48;15.80;99.40
23124;DHT22;11731;48.592;8.858;2023-03-23T09:52:44;15.70;99.00
23124;DHT22;11731;48.592;8.858;2023-03-23T09:55:15;15.60;99.10
23124;DHT22;11731;48.592;8.858;2023-03-23T09:57:49;15.70;99.30
23124;DHT22;11731;48.592;8.858;2023-03-23T10:00:23;16.10;99.00
23124;DHT22;11731;48.592;8.858;2023-03-23T10:02:59;16.40;98.70
23124;DHT22;11731;48.592;8.858;2023-03-23T10:05:42;16.30;98.60
23124;DHT22;11731;48.592;8.858;2023-03-23T10:08:13;16.70;98.50
23124;DHT22;11731;48.592;8.858;2023-03-23T10:11:13;16.80;98.60
23124;DHT22;11731;48.592;8.858;2023-03-23T10:13:59;16.90;98.50
23124;DHT22;11731;48.592;8.858;2023-03-23T10:16:39;16.50;98.60
23124;DHT22;11731;48.592;8.858;2023-03-23T10:19:20;16.60;98.40
23124;DHT22;11731;48.592;8.858;2023-03-23T10:22:10;16.70;98.50
23124;DHT22;11731;48.592;8.858;2023-03-23T10:24:43;16.80;98.10
23124;DHT22;11731;48.592;8.858;2023-03-23T10:27:19;16.60;98.50
23124;DHT22;11731;48.592;8.858;2023-03-23T10:29:52;16.30;98.60
23124;DHT22;11731;48.592;8.858;2023-03-23T10:35:53;16.70;98.40
23124;DHT22;11731;48.592;8.858;2023-03-23T10:38:45;16.60;98.20
23124;DHT22;11731;48.592;8.858;2023-03-23T10:41:33;16.60;98.70
23124;DHT22;11731;48.592;8.858;2023-03-23T10:44:00;17.10;97.80
23124;DHT22;11731;48.592;8.858;2023-03-23T10:46:41;17.60;97.90
23124;DHT22;11731;48.592;8.858;2023-03-23T10:53:00;17.40;97.70
23124;DHT22;11731;48.592;8.858;2023-03-23T10:55:36;17.40;98.00
23124;DHT22;11731;48.592;8.858;2023-03-23T10:58:06;17.90;97.40
23124;DHT22;11731;48.592;8.858;2023-03-23T11:00:41;17.90;96.40
23124;DHT22;11731;48.592;8.858;2023-03-23T11:03:25;17.40;96.70
23124;DHT22;11731;48.592;8.858;2023-03-23T11:05:58;16.90;97.60
23124;DHT22;11731;48.592;8.858;2023-03-23T11:08:28;16.80;98.00
23124;DHT22;11731;48.592;8.858;2023-03-23T11:10:58;17.00;97.80
23124;DHT22;11731;48.592;8.858;2023-03-23T11:13:30;16.80;98.60
23124;DHT22;11731;48.592;8.858;2023-03-23T11:16:27;16.80;99.10
23124;DHT22;11731;48.592;8.858;2023-03-23T11:19:11;16.70;98.80
23124;DHT22;11731;48.592;8.858;2023-03-23T11:21:39;16.60;98.60
23124;DHT22;11731;48.592;8.858;2023-03-23T11:24:09;16.70;98.90
23124;DHT22;11731;48.592;8.858;2023-03-23T11:26:36;17.00;98.40
23124;DHT22;11731;48.592;8.858;2023-03-23T11:29:08;17.20;97.90
23124;DHT22;11731;48.592;8.858;2023-03-23T11:31:40;17.10;98.00
23124;DHT22;11731;48.592;8.858;2023-03-23T11:34:14;17.10;98.20
23124;DHT22;11731;48.592;8.858;2023-03-23T11:36:43;17.30;97.90
23124;DHT22;11731;48.592;8.858;2023-03-23T11:42:45;17.40;97.10
23124;DHT22;11731;48.592;8.858;2023-03-23T11:51:29;17.50;96.90
23124;DHT22;11731;48.592;8.858;2023-03-23T11:54:00;18.10;96.20
23124;DHT22;11731;48.592;8.858;2023-03-23T11:56:33;17.90;96.30
23124;DHT22;11731;48.592;8.858;2023-03-23T11:59:02;18.10;96.00
23124;DHT22;11731;48.592;8.858;2023-03-23T12:01:50;18.80;95.90
23124;DHT22;11731;48.592;8.858;2023-03-23T12:07:41;18.60;94.90
23124;DHT22;11731;48.592;8.858;2023-03-23T12:10:51;18.30;94.90
23124;DHT22;11731;48.592;8.858;2023-03-23T12:13:48;18.30;94.10
23124;DHT22;11731;48.592;8.858;2023-03-23T12:16:45;18.40;94.90
23124;DHT22;11731;48.592;8.858;2023-03-23T12:19:21;17.80;94.80
23124;DHT22;11731;48.592;8.858;2023-03-23T12:21:57;17.70;95.00
23124;DHT22;11731;48.592;8.858;2023-03-23T12:25:31;17.80;94.80
23124;DHT22;11731;48.592;8.858;2023-03-23T12:28:03;18.20;94.90
23124;DHT22;11731;48.592;8.858;2023-03-23T12:30:41;18.00;94.20
23124;DHT22;11731;48.592;8.858;2023-03-23T12:33:24;18.00;95.20
23124;DHT22;11731;48.592;8.858;2023-03-23T12:36:03;17.70;95.20
23124;DHT22;11731;48.592;8.858;2023-03-23T12:38:54;17.80;95.70
23124;DHT22;11731;48.592;8.858;2023-03-23T12:41:49;17.60;95.50
23124;DHT22;11731;48.592;8.858;2023-03-23T12:44:23;17.60;95.50
23124;DHT22;11731;48.592;8.858;2023-03-23T12:47:07;17.70;95.50
23124;DHT22;11731;48.592;8.858;2023-03-23T12:49:41;17.80;95.30
23124;DHT22;11731;48.592;8.858;2023-03-23T12:52:14;17.80;95.30
23124;DHT22;11731;48.592;8.858;2023-03-23T12:54:53;17.80;95.10
23124;DHT22;11731;48.592;8.858;2023-03-23T12:57:26;17.90;95.10
23124;DHT22;11731;48.592;8.858;2023-03-23T13:00:02;18.10;94.70
23124;DHT22;11731;48.592;8.858;2023-03-23T13:02:42;18.10;94.80
23124;DHT22;11731;48.592;8.858;2023-03-23T13:05:29;18.10;94.60
23124;DHT22;11731;48.592;8.858;2023-03-23T13:08:11;18.10;95.00
23124;DHT22;11731;48.592;8.858;2023-03-23T13:10:42;18.20;95.00
23124;DHT22;11731;48.592;8.858;2023-03-23T13:13:16;18.60;94.90
23124;DHT22;11731;48.592;8.858;2023-03-23T13:16:01;18.60;94.70
23124;DHT22;11731;48.592;8.858;2023-03-23T13:18:42;19.00;94.60
23124;DHT22;11731;48.592;8.858;2023-03-23T13:21:19;19.00;94.00
23124;DHT22;11731;48.592;8.858;2023-03-23T13:24:00;19.20;93.90
23124;DHT22;11731;48.592;8.858;2023-03-23T13:26:37;19.60;93.30
23124;DHT22;11731;48.592;8.858;2023-03-23T13:29:15;20.10;93.20
23124;DHT22;11731;48.592;8.858;2023-03-23T13:31:47;20.10;92.70
23124;DHT22;11731;48.592;8.858;2023-03-23T13:34:17;19.90;92.60
23124;DHT22;11731;48.592;8.858;2023-03-23T13:36:53;19.20;92.90
23124;DHT22;11731;48.592;8.858;2023-03-23T13:39:25;18.90;92.90
23124;DHT22;11731;48.592;8.858;2023-03-23T13:42:03;18.30;92.90
23124;DHT22;11731;48.592;8.858;2023-03-23T13:48:22;18.20;93.80
23124;DHT22;11731;48.592;8.858;2023-03-23T13:51:23;18.30;93.50
23124;DHT22;11731;48.592;8.858;2023-03-23T13:53:52;18.50;94.10
23124;DHT22;11731;48.592;8.858;2023-03-23T14:03:20;19.20;93.40
23124;DHT22;11731;48.592;8.858;2023-03-23T14:07:08;19.10;92.80
23124;DHT22;11731;48.592;8.858;2023-03-23T14:09:32;18.80;93.30
23124;DHT22;11731;48.592;8.858;2023-03-23T14:19:12;18.30;93.10
23124;DHT22;11731;48.592;8.858;2023-03-23T14:21:30;18.60;93.20
23124;DHT22;11731;48.592;8.858;2023-03-23T14:24:06;18.50;93.50
23124;DHT22;11731;48.592;8.858;2023-03-23T14:27:02;18.40;93.90
23124;DHT22;11731;48.592;8.858;2023-03-23T14:29:46;18.50;93.10
23124;DHT22;11731;48.592;8.858;2023-03-23T14:34:41;18.60;93.10
23124;DHT22;11731;48.592;8.858;2023-03-23T14:35:43;18.40;92.30
23124;DHT22;11731;48.592;8.858;2023-03-23T14:38:28;18.10;93.20
23124;DHT22;11731;48.592;8.858;2023-03-23T14:41:01;18.20;93.00
23124;DHT22;11731;48.592;8.858;2023-03-23T14:43:30;18.30;93.00
23124;DHT22;11731;48.592;8.858;2023-03-23T14:46:02;18.20;92.70
23124;DHT22;11731;48.592;8.858;2023-03-23T14:49:04;18.00;92.50
23124;DHT22;11731;48.592;8.858;2023-03-23T14:51:32;17.60;92.50
23124;DHT22;11731;48.592;8.858;2023-03-23T14:57:05;18.10;92.50
23124;DHT22;11731;48.592;8.858;2023-03-23T14:59:36;18.00;91.70
23124;DHT22;11731;48.592;8.858;2023-03-23T15:02:03;17.70;92.30
23124;DHT22;11731;48.592;8.858;2023-03-23T15:05:26;17.50;92.40
23124;DHT22;11731;48.592;8.858;2023-03-23T15:08:00;17.50;92.50
23124;DHT22;11731;48.592;8.858;2023-03-23T15:10:27;17.70;92.60
23124;DHT22;11731;48.592;8.858;2023-03-23T15:12:56;17.50;92.40
23124;DHT22;11731;48.592;8.858;2023-03-23T15:15:26;17.50;92.50
23124;DHT22;11731;48.592;8.858;2023-03-23T15:18:04;17.90;92.70
23124;DHT22;11731;48.592;8.858;2023-03-23T15:20:49;18.10;92.50
23124;DHT22;11731;48.592;8.858;2023-03-23T15:23:33;17.70;92.40
23124;DHT22;11731;48.592;8.858;2023-03-23T15:26:05;18.00;92.80
23124;DHT22;11731;48.592;8.858;2023-03-23T15:28:39;17.90;92.30
23124;DHT22;11731;48.592;8.858;2023-03-23T15:31:06;17.60;93.00
23124;DHT22;11731;48.592;8.858;2023-03-23T15:34:33;17.40;92.90
23124;DHT22;11731;48.592;8.858;2023-03-23T15:36:44;17.40;92.60
23124;DHT22;11731;48.592;8.858;2023-03-23T15:40:26;17.20;92.90
23124;DHT22;11731;48.592;8.858;2023-03-23T15:42:34;17.30;92.80
23124;DHT22;11731;48.592;8.858;2023-03-23T15:45:24;17.30;92.90
23124;DHT22;11731;48.592;8.858;2023-03-23T15:47:51;17.20;93.30
23124;DHT22;11731;48.592;8.858;2023-03-23T15:50:34;17.10;92.80
23124;DHT22;11731;48.592;8.858;2023-03-23T15:53:27;17.10;93.20
23124;DHT22;11731;48.592;8.858;2023-03-23T15:55:54;17.00;93.40
23124;DHT22;11731;48.592;8.858;2023-03-23T15:58:22;17.10;93.30
23124;DHT22;11731;48.592;8.858;2023-03-23T16:00:50;17.10;93.10
23124;DHT22;11731;48.592;8.858;2023-03-23T16:03:21;17.00;93.50
23124;DHT22;11731;48.592;8.858;2023-03-23T16:05:52;17.00;93.50
23124;DHT22;11731;48.592;8.858;2023-03-23T16:08:19;17.00;93.30
23124;DHT22;11731;48.592;8.858;2023-03-23T16:10:46;16.90;93.70
23124;DHT22;11731;48.592;8.858;2023-03-23T16:13:13;16.90;93.80
23124;DHT22;11731;48.592;8.858;2023-03-23T16:15:46;16.80;93.60
23124;DHT22;11731;48.592;8.858;2023-03-23T16:18:44;16.70;94.00
23124;DHT22;11731;48.592;8.858;2023-03-23T16:21:14;16.60;94.30
23124;DHT22;11731;48.592;8.858;2023-03-23T16:23:42;16.50;93.70
23124;DHT22;11731;48.592;8.858;2023-03-23T16:26:11;16.40;94.40
23124;DHT22;11731;48.592;8.858;2023-03-23T16:31:55;16.50;94.70
23124;DHT22;11731;48.592;8.858;2023-03-23T16:34:27;16.60;94.40
23124;DHT22;11731;48.592;8.858;2023-03-23T16:36:57;16.60;94.50
23124;DHT22;11731;48.592;8.858;2023-03-23T16:39:24;16.70;94.50
23124;DHT22;11731;48.592;8.858;2023-03-23T16:41:51;16.90;94.20
23124;DHT22;11731;48.592;8.858;2023-03-23T16:44:18;16.70;94.80
23124;DHT22;11731;48.592;8.858;2023-03-23T16:46:49;16.60;94.90
23124;DHT22;11731;48.592;8.858;2023-03-23T16:49:18;16.80;94.00
23124;DHT22;11731;48.592;8.858;2023-03-23T16:51:46;16.70;94.50
23124;DHT22;11731;48.592;8.858;2023-03-23T16:54:15;16.80;95.00
23124;DHT22;11731;48.592;8.858;2023-03-23T16:56:42;16.70;94.80
23124;DHT22;11731;48.592;8.858;2023-03-23T16:59:13;16.90;95.50
23124;DHT22;11731;48.592;8.858;2023-03-23T17:05:11;17.00;94.80
23124;DHT22;11731;48.592;8.858;2023-03-23T17:08:05;17.20;95.50
23124;DHT22;11731;48.592;8.858;2023-03-23T17:11:44;17.20;95.40
23124;DHT22;11731;48.592;8.858;2023-03-23T17:14:25;17.50;95.90
23124;DHT22;11731;48.592;8.858;2023-03-23T17:17:07;17.60;96.00
23124;DHT22;11731;48.592;8.858;2023-03-23T17:19:41;17.50;95.90
23124;DHT22;11731;48.592;8.858;2023-03-23T17:31:42;16.50;96.80
23124;DHT22;11731;48.592;8.858;2023-03-23T17:37:43;15.90;97.30
23124;DHT22;11731;48.592;8.858;2023-03-23T17:43:16;15.80;97.10
23124;DHT22;11731;48.592;8.858;2023-03-23T17:45:48;15.60;97.50
23124;DHT22;11731;48.592;8.858;2023-03-23T17:52:02;15.80;97.60
23124;DHT22;11731;48.592;8.858;2023-03-23T17:57:41;16.20;97.10
23124;DHT22;11731;48.592;8.858;2023-03-23T18:00:30;15.90;96.70
23124;DHT22;11731;48.592;8.858;2023-03-23T18:02:57;15.80;97.60
23124;DHT22;11731;48.592;8.858;2023-03-23T18:05:29;15.60;97.90
23124;DHT22;11731;48.592;8.858;2023-03-23T18:11:13;15.70;97.70
23124;DHT22;11731;48.592;8.858;2023-03-23T18:14:16;15.60;97.80
23124;DHT22;11731;48.592;8.858;2023-03-23T18:16:44;15.40;98.00
23124;DHT22;11731;48.592;8.858;2023-03-23T18:19:11;15.30;98.20
23124;DHT22;11731;48.592;8.858;2023-03-23T18:21:38;15.40;97.90
23124;DHT22;11731;48.592;8.858;2023-03-23T18:24:12;15.80;97.90
23124;DHT22;11731;48.592;8.858;2023-03-23T18:26:40;15.70;97.70
23124;DHT22;11731;48.592;8.858;2023-03-23T18:29:28;15.60;98.10
23124;DHT22;11731;48.592;8.858;2023-03-23T18:31:55;15.60;98.00
23124;DHT22;11731;48.592;8.858;2023-03-23T18:35:19;15.70;98.10
23124;DHT22;11731;48.592;8.858;2023-03-23T18:38:06;15.60;98.10
23124;DHT22;11731;48.592;8.858;2023-03-23T18:41:01;15.60;98.50
23124;DHT22;11731;48.592;8.858;2023-03-23T18:57:02;15.80;98.50
23124;DHT22;11731;48.592;8.858;2023-03-23T18:59:40;15.60;98.30
23124;DHT22;11731;48.592;8.858;2023-03-23T19:02:12;15.60;98.50
23124;DHT22;11731;48.592;8.858;2023-03-23T19:05:21;15.30;99.00
23124;DHT22;11731;48.592;8.858;2023-03-23T19:07:51;15.20;98.90
23124;DHT22;11731;48.592;8.858;2023-03-23T19:10:24;15.00;99.40
23124;DHT22;11731;48.592;8.858;2023-03-23T19:12:58;15.00;99.60
23124;DHT22;11731;48.592;8.858;2023-03-23T19:15:26;15.00;99.20
23124;DHT22;11731;48.592;8.858;2023-03-23T19:18:01;15.00;99.60
23124;DHT22;11731;48.592;8.858;2023-03-23T19:21:31;15.10;99.10
23124;DHT22;11731;48.592;8.858;2023-03-23T19:25:00;15.30;99.00
23124;DHT22;11731;48.592;8.858;2023-03-23T19:33:27;15.00;99.60
23124;DHT22;11731;48.592;8.858;2023-03-23T19:35:54;14.90;99.50
23124;DHT22;11731;48.592;8.858;2023-03-23T19:38:34;14.70;99.90
23124;DHT22;11731;48.592;8.858;2023-03-23T19:41:13;14.70;99.90
23124;DHT22;11731;48.592;8.858;2023-03-23T19:44:01;14.80;99.90
23124;DHT22;11731;48.592;8.858;2023-03-23T19:46:43;15.00;99.50
23124;DHT22;11731;48.592;8.858;2023-03-23T19:49:31;15.10;99.70
23124;DHT22;11731;48.592;8.858;2023-03-23T19:55:05;15.10;99.60
23124;DHT22;11731;48.592;8.858;2023-03-23T20:00:28;14.80;99.90
23124;DHT22;11731;48.592;8.858;2023-03-23T20:03:25;14.90;99.90
23124;DHT22;11731;48.592;8.858;2023-03-23T20:05:58;15.10;99.90
23124;DHT22;11731;48.592;8.858;2023-03-23T20:08:25;15.10;99.90
23124;DHT22;11731;48.592;8.858;2023-03-23T20:11:13;15.20;99.40
23124;DHT22;11731;48.592;8.858;2023-03-23T20:14:11;15.50;99.30
23124;DHT22;11731;48.592;8.858;2023-03-23T20:19:42;15.90;99.00
23124;DHT22;11731;48.592;8.858;2023-03-23T20:28:37;16.60;97.90
23124;DHT22;11731;48.592;8.858;2023-03-23T20:31:31;16.70;97.80
23124;DHT22;11731;48.592;8.858;2023-03-23T20:38:18;16.20;98.30
23124;DHT22;11731;48.592;8.858;2023-03-23T20:40:45;15.80;98.90
23124;DHT22;11731;48.592;8.858;2023-03-23T20:43:26;15.90;98.70
23124;DHT22;11731;48.592;8.858;2023-03-23T20:46:22;15.90;98.70
23124;DHT22;11731;48.592;8.858;2023-03-23T20:49:00;15.70;99.50
23124;DHT22;11731;48.592;8.858;2023-03-23T20:51:56;15.70;99.40
23124;DHT22;11731;48.592;8.858;2023-03-23T20:54:53;15.80;98.80
23124;DHT22;11731;48.592;8.858;2023-03-23T20:57:26;16.10;98.80
23124;DHT22;11731;48.592;8.858;2023-03-23T20:59:54;16.20;98.60
23124;DHT22;11731;48.592;8.858;2023-03-23T21:02:46;16.20;98.70
23124;DHT22;11731;48.592;8.858;2023-03-23T21:11:44;16.30;98.40
23124;DHT22;11731;48.592;8.858;2023-03-23T21:14:41;16.40;98.10
23124;DHT22;11731;48.592;8.858;2023-03-23T21:17:17;16.40;98.20
23124;DHT22;11731;48.592;8.858;2023-03-23T21:20:02;16.50;98.40
23124;DHT22;11731;48.592;8.858;2023-03-23T21:22:34;16.40;98.20
23124;DHT22;11731;48.592;8.858;2023-03-23T21:25:23;16.30;97.90
23124;DHT22;11731;48.592;8.858;2023-03-23T21:28:28;16.30;98.40